createdAt,value
2023-12-07T00:01:38.975Z,3.68
2023-12-07T00:04:09.135Z,3.65
2023-12-07T00:06:38.884Z,3.60
2023-12-07T00:09:08.425Z,3.58
2023-12-07T00:11:38.136Z,3.58
2023-12-07T00:14:07.601Z,3.56
2023-12-07T00:16:37.048Z,3.54
2023-12-07T00:19:07.593Z,3.49
2023-12-07T00:21:37.006Z,3.49
2023-12-07T00:24:08.352Z,3.47
2023-12-07T00:26:39.468Z,3.44
2023-12-07T00:29:10.807Z,3.41
2023-12-07T00:31:40.776Z,3.38
2023-12-07T00:34:11.295Z,3.30
2023-12-07T00:36:42.128Z,3.30
2023-12-07T00:39:12.230Z,3.30
2023-12-07T00:41:41.865Z,3.29
2023-12-07T00:44:11.989Z,3.27
2023-12-07T00:46:45.554Z,3.23
2023-12-07T00:49:15.374Z,3.19
2023-12-07T00:51:45.579Z,3.14
2023-12-07T00:54:15.721Z,3.16
2023-12-07T00:56:45.712Z,3.14
2023-12-07T00:59:16.014Z,3.12
2023-12-07T01:01:45.797Z,3.10
2023-12-07T01:04:16.417Z,3.08
2023-12-07T01:06:49.847Z,3.07
2023-12-07T01:09:19.674Z,3.03
2023-12-07T01:11:50.169Z,3.06
2023-12-07T01:14:20.420Z,3.06
2023-12-07T01:16:50.492Z,3.03
2023-12-07T01:19:20.107Z,3.03
2023-12-07T01:21:49.748Z,3.02
2023-12-07T01:24:21.183Z,3.01
2023-12-07T01:26:50.786Z,3.02
2023-12-07T01:29:21.497Z,3.04
2023-12-07T01:31:51.124Z,3.03
2023-12-07T01:34:21.120Z,3.04
2023-12-07T01:36:51.535Z,3.05
2023-12-07T01:39:23.897Z,3.03
2023-12-07T01:41:53.456Z,3.00
2023-12-07T01:44:22.978Z,2.97
2023-12-07T01:46:52.914Z,2.96
2023-12-07T01:49:23.152Z,2.94
2023-12-07T01:51:53.170Z,2.94
2023-12-07T01:54:22.678Z,2.91
2023-12-07T01:56:53.470Z,2.90
2023-12-07T01:59:23.640Z,2.91
2023-12-07T02:01:54.308Z,2.91
2023-12-07T02:04:23.961Z,2.90
2023-12-07T02:06:57.731Z,2.91
2023-12-07T02:09:27.273Z,2.92
2023-12-07T02:11:57.251Z,2.91
2023-12-07T02:14:27.585Z,2.90
2023-12-07T02:17:10.180Z,2.89
2023-12-07T02:20:20.779Z,2.90
2023-12-07T02:22:56.510Z,2.89
2023-12-07T02:25:37.769Z,2.89
2023-12-07T02:28:07.592Z,2.90
2023-12-07T02:30:37.452Z,2.89
2023-12-07T02:33:08.095Z,2.87
2023-12-07T02:35:41.743Z,2.92
2023-12-07T02:38:11.914Z,2.91
2023-12-07T02:40:42.383Z,2.94
2023-12-07T02:43:12.676Z,2.91
2023-12-07T02:45:43.148Z,2.95
2023-12-07T02:48:13.027Z,2.95
2023-12-07T02:50:42.673Z,2.98
2023-12-07T02:53:12.530Z,2.98
2023-12-07T02:55:42.337Z,3.00
2023-12-07T02:58:11.957Z,3.03
2023-12-07T03:00:41.619Z,3.03
2023-12-07T03:03:11.083Z,3.06
2023-12-07T03:05:40.785Z,3.03
2023-12-07T03:08:10.613Z,3.02
2023-12-07T03:10:40.270Z,3.05
2023-12-07T03:13:09.926Z,3.03
2023-12-07T03:15:39.420Z,3.04
2023-12-07T03:18:10.646Z,3.07
2023-12-07T03:20:40.268Z,3.09
2023-12-07T03:23:09.761Z,3.09
2023-12-07T03:25:39.495Z,3.11
2023-12-07T03:28:09.075Z,3.12
2023-12-07T03:30:40.954Z,3.11
2023-12-07T03:33:11.518Z,3.11
2023-12-07T03:35:42.537Z,3.11
2023-12-07T03:38:13.046Z,3.06
2023-12-07T03:40:43.216Z,3.07
2023-12-07T03:43:13.715Z,3.06
2023-12-07T03:45:46.348Z,3.06
2023-12-07T03:48:16.383Z,3.05
2023-12-07T03:50:46.058Z,3.05
2023-12-07T03:53:15.785Z,3.05
2023-12-07T03:55:45.886Z,3.04
2023-12-07T03:58:15.601Z,3.06
2023-12-07T04:00:47.591Z,3.07
2023-12-07T04:03:17.460Z,3.04
2023-12-07T04:05:51.114Z,3.03
2023-12-07T04:08:22.753Z,3.01
2023-12-07T04:10:52.594Z,2.97
2023-12-07T04:13:23.035Z,3.00
2023-12-07T04:15:52.931Z,2.95
2023-12-07T04:18:22.721Z,2.93
2023-12-07T04:20:54.101Z,2.88
2023-12-07T04:23:24.671Z,2.84
2023-12-07T04:25:54.376Z,2.83
2023-12-07T04:28:24.133Z,2.79
2023-12-07T04:30:54.167Z,2.80
2023-12-07T04:33:24.019Z,2.79
2023-12-07T04:35:53.750Z,2.81
2023-12-07T04:38:23.483Z,2.80
2023-12-07T04:40:53.072Z,2.74
2023-12-07T04:43:23.560Z,2.73
2023-12-07T04:45:53.526Z,2.70
2023-12-07T04:48:23.138Z,2.68
2023-12-07T04:50:59.470Z,2.68
2023-12-07T04:53:34.409Z,2.67
2023-12-07T04:56:04.158Z,2.64
2023-12-07T04:58:33.659Z,2.59
2023-12-07T05:01:04.189Z,2.58
2023-12-07T05:03:33.831Z,2.56
2023-12-07T05:06:04.107Z,2.51
2023-12-07T05:08:33.657Z,2.50
2023-12-07T05:11:03.273Z,2.49
2023-12-07T05:13:35.174Z,2.47
2023-12-07T05:16:05.269Z,2.47
2023-12-07T05:18:35.549Z,2.48
2023-12-07T05:21:05.961Z,2.50
2023-12-07T05:23:39.178Z,2.44
2023-12-07T05:26:09.832Z,2.44
2023-12-07T05:28:40.011Z,2.42
2023-12-07T05:31:09.907Z,2.41
2023-12-07T05:33:39.627Z,2.40
2023-12-07T05:36:10.174Z,2.37
2023-12-07T05:38:40.042Z,2.38
2023-12-07T05:41:10.711Z,2.33
2023-12-07T05:43:45.793Z,2.33
2023-12-07T05:46:15.488Z,2.33
2023-12-07T05:48:45.190Z,2.31
2023-12-07T05:51:17.914Z,2.27
2023-12-07T05:53:48.985Z,2.29
2023-12-07T05:56:22.315Z,2.27
2023-12-07T05:58:51.906Z,2.27
2023-12-07T06:01:21.681Z,2.25
2023-12-07T06:03:51.788Z,2.22
2023-12-07T06:06:23.133Z,2.22
2023-12-07T06:08:57.246Z,2.20
2023-12-07T06:11:27.649Z,2.20
2023-12-07T06:14:03.245Z,2.24
2023-12-07T06:16:35.218Z,2.24
2023-12-07T06:19:08.056Z,2.23
2023-12-07T06:21:38.243Z,2.21
2023-12-07T06:24:08.543Z,2.20
2023-12-07T06:26:38.275Z,2.20
2023-12-07T06:29:08.800Z,2.16
2023-12-07T06:31:44.696Z,2.13
2023-12-07T06:34:14.608Z,2.10
2023-12-07T06:36:45.895Z,2.13
2023-12-07T06:39:15.836Z,2.09
2023-12-07T06:41:48.340Z,2.09
2023-12-07T06:44:20.723Z,2.07
2023-12-07T06:46:51.527Z,2.05
2023-12-07T06:49:21.496Z,2.06
2023-12-07T06:51:51.174Z,2.07
2023-12-07T06:54:20.751Z,2.05
2023-12-07T06:56:50.379Z,2.08
2023-12-07T06:59:20.286Z,2.09
2023-12-07T07:01:50.254Z,2.10
2023-12-07T07:04:21.000Z,2.10
2023-12-07T07:06:52.501Z,2.08
2023-12-07T07:09:25.410Z,2.10
2023-12-07T07:12:00.953Z,2.07
2023-12-07T07:14:30.994Z,2.03
2023-12-07T07:17:02.444Z,2.03
2023-12-07T07:19:32.832Z,2.04
2023-12-07T07:22:03.764Z,2.02
2023-12-07T07:24:33.555Z,2.04
2023-12-07T07:27:04.120Z,2.03
2023-12-07T07:29:33.773Z,2.06
2023-12-07T07:32:20.955Z,2.06
2023-12-07T07:34:57.683Z,2.07
2023-12-07T07:37:28.043Z,2.09
2023-12-07T07:40:06.914Z,2.12
2023-12-07T07:42:36.644Z,2.09
2023-12-07T07:45:10.767Z,2.04
2023-12-07T07:47:40.843Z,2.05
2023-12-07T07:50:12.539Z,2.08
2023-12-07T07:52:42.339Z,2.06
2023-12-07T07:55:13.704Z,2.06
2023-12-07T07:57:44.501Z,2.07
2023-12-07T08:00:16.387Z,2.05
2023-12-07T08:02:48.921Z,2.05
2023-12-07T08:05:22.253Z,2.05
2023-12-07T08:07:52.940Z,2.04
2023-12-07T08:10:27.148Z,2.06
2023-12-07T08:12:57.453Z,2.01
2023-12-07T08:15:27.730Z,2.06
2023-12-07T08:17:58.067Z,2.09
2023-12-07T08:20:27.954Z,2.09
2023-12-07T08:22:57.624Z,2.10
2023-12-07T08:25:27.372Z,2.08
2023-12-07T08:27:57.062Z,2.11
2023-12-07T08:30:26.590Z,2.14
2023-12-07T08:32:58.332Z,2.08
2023-12-07T08:35:27.951Z,2.01
2023-12-07T08:37:57.850Z,1.99
2023-12-07T08:40:27.814Z,2.03
2023-12-07T08:42:58.283Z,2.00
2023-12-07T08:45:28.519Z,1.98
2023-12-07T08:47:59.655Z,2.00
2023-12-07T08:50:30.053Z,2.01
2023-12-07T08:53:05.195Z,1.94
2023-12-07T08:55:36.516Z,1.92
2023-12-07T08:58:06.411Z,1.96
2023-12-07T09:00:36.201Z,1.99
2023-12-07T09:03:09.545Z,2.02
2023-12-07T09:05:42.340Z,2.01
2023-12-07T09:08:12.108Z,1.98
2023-12-07T09:10:41.648Z,1.99
2023-12-07T09:13:13.576Z,1.97
2023-12-07T09:15:46.127Z,2.01
2023-12-07T09:18:16.478Z,2.04
2023-12-07T09:20:47.553Z,2.05
2023-12-07T09:23:20.261Z,2.09
2023-12-07T09:25:50.182Z,2.11
2023-12-07T09:28:21.782Z,2.12
2023-12-07T09:30:51.825Z,2.10
2023-12-07T09:33:22.218Z,2.06
2023-12-07T09:35:52.745Z,2.03
2023-12-07T09:38:22.626Z,2.00
2023-12-07T09:40:56.526Z,1.96
2023-12-07T09:43:27.116Z,1.96
2023-12-07T09:45:59.482Z,1.94
2023-12-07T09:48:29.873Z,1.97
2023-12-07T09:51:01.913Z,1.97
2023-12-07T09:53:36.041Z,1.95
2023-12-07T09:56:06.514Z,1.92
2023-12-07T09:58:41.208Z,1.91
2023-12-07T10:01:15.326Z,1.90
2023-12-07T10:03:48.861Z,1.84
2023-12-07T10:06:22.924Z,1.87
2023-12-07T10:09:04.697Z,1.88
2023-12-07T10:11:36.151Z,1.93
2023-12-07T10:14:08.991Z,1.89
2023-12-07T10:16:39.371Z,1.86
2023-12-07T10:19:29.575Z,1.81
2023-12-07T10:22:03.633Z,1.82
2023-12-07T10:24:35.361Z,1.82
2023-12-07T10:27:09.190Z,1.80
2023-12-07T10:29:41.697Z,1.84
2023-12-07T10:32:14.525Z,1.89
2023-12-07T10:34:49.024Z,1.87
2023-12-07T10:37:21.029Z,1.83
2023-12-07T10:39:51.084Z,1.77
2023-12-07T10:42:38.518Z,1.79
2023-12-07T10:45:15.994Z,1.76
2023-12-07T10:47:46.174Z,1.73
2023-12-07T10:50:25.608Z,1.77
2023-12-07T10:52:58.613Z,1.75
2023-12-07T10:55:32.696Z,1.74
2023-12-07T10:58:04.456Z,1.73
2023-12-07T11:00:41.048Z,1.66
2023-12-07T11:03:32.823Z,1.65
2023-12-07T11:06:37.109Z,1.69
2023-12-07T11:09:29.355Z,1.63
2023-12-07T11:12:15.379Z,1.62
2023-12-07T11:14:46.219Z,1.61
2023-12-07T11:17:20.022Z,1.62
2023-12-07T11:19:50.353Z,1.64
2023-12-07T11:22:32.653Z,1.67
2023-12-07T11:25:07.151Z,1.69
2023-12-07T11:27:39.404Z,1.67
2023-12-07T11:30:12.627Z,1.62
2023-12-07T11:32:44.753Z,1.63
2023-12-07T11:35:16.587Z,1.62
2023-12-07T11:38:10.820Z,1.61
2023-12-07T11:40:44.167Z,1.60
2023-12-07T11:44:21.314Z,1.61
2023-12-07T11:49:36.517Z,1.58
2023-12-07T11:53:45.997Z,1.57
2023-12-07T11:56:23.259Z,1.61
2023-12-07T11:58:57.628Z,1.62
2023-12-07T12:01:32.920Z,1.58
2023-12-07T12:04:07.276Z,1.58
2023-12-07T12:06:40.168Z,1.58
2023-12-07T12:09:26.773Z,1.53
2023-12-07T12:12:03.721Z,1.53
2023-12-07T12:14:51.720Z,1.54
2023-12-07T12:17:36.885Z,1.54
2023-12-07T12:20:25.965Z,1.53
2023-12-07T12:22:57.650Z,1.49
2023-12-07T12:25:31.971Z,1.48
2023-12-07T12:28:06.978Z,1.46
2023-12-07T12:30:40.902Z,1.45
2023-12-07T12:33:17.158Z,1.45
2023-12-07T12:36:12.453Z,1.40
2023-12-07T12:38:54.519Z,1.39
2023-12-07T12:41:34.336Z,1.35
2023-12-07T12:54:56.706Z,1.36
2023-12-07T12:59:41.167Z,1.39
2023-12-07T13:04:41.384Z,1.39
2023-12-07T13:08:59.306Z,1.36
2023-12-07T13:13:25.156Z,1.36
2023-12-07T13:17:45.871Z,1.34
2023-12-07T13:20:17.151Z,1.33
2023-12-07T13:22:49.643Z,1.31
2023-12-07T13:25:21.371Z,1.31
2023-12-07T13:27:51.975Z,1.32
2023-12-07T13:30:22.342Z,1.33
2023-12-07T13:32:52.209Z,1.32
2023-12-07T13:35:22.159Z,1.30
2023-12-07T13:37:51.833Z,1.31
2023-12-07T13:40:21.464Z,1.32
2023-12-07T13:42:51.217Z,1.30
2023-12-07T13:45:21.178Z,1.29
2023-12-07T13:47:51.055Z,1.30
2023-12-07T13:50:25.055Z,1.31
2023-12-07T13:52:55.160Z,1.29
2023-12-07T13:55:25.874Z,1.30
2023-12-07T13:57:58.360Z,1.32
2023-12-07T14:00:29.269Z,1.31
2023-12-07T14:03:04.182Z,1.33
2023-12-07T14:05:36.771Z,1.32
2023-12-07T14:08:09.774Z,1.31
2023-12-07T14:10:39.648Z,1.32
2023-12-07T14:13:10.456Z,1.32
2023-12-07T14:15:44.918Z,1.32
2023-12-07T14:18:16.060Z,1.30
2023-12-07T14:20:56.702Z,1.31
2023-12-07T14:23:45.249Z,1.33
2023-12-07T14:26:21.964Z,1.34
2023-12-07T14:28:51.958Z,1.31
2023-12-07T14:31:22.234Z,1.33
2023-12-07T14:33:53.029Z,1.32
2023-12-07T14:36:24.447Z,1.30
2023-12-07T14:38:54.705Z,1.32
2023-12-07T14:41:28.896Z,1.32
2023-12-07T14:43:59.141Z,1.31
2023-12-07T14:46:30.339Z,1.33
2023-12-07T14:49:00.544Z,1.32
2023-12-07T14:51:31.606Z,1.35
2023-12-07T14:54:01.397Z,1.35
2023-12-07T14:56:35.295Z,1.30
2023-12-07T14:59:06.076Z,1.29
2023-12-07T15:01:35.878Z,1.30
2023-12-07T15:04:07.783Z,1.29
2023-12-07T15:06:42.401Z,1.24
2023-12-07T15:09:16.007Z,1.23
2023-12-07T15:11:46.909Z,1.21
2023-12-07T15:14:29.268Z,1.25
2023-12-07T15:17:04.017Z,1.27
2023-12-07T15:19:37.982Z,1.29
2023-12-07T15:22:10.203Z,1.29
2023-12-07T15:24:40.947Z,1.29
2023-12-07T15:27:11.322Z,1.30
2023-12-07T15:29:41.814Z,1.31
2023-12-07T15:32:11.814Z,1.32
2023-12-07T15:34:43.408Z,1.35
2023-12-07T15:37:14.597Z,1.35
2023-12-07T15:39:45.538Z,1.37
2023-12-07T15:42:17.810Z,1.38
2023-12-07T15:44:50.175Z,1.38
2023-12-07T15:47:20.892Z,1.36
2023-12-07T15:49:50.459Z,1.36
2023-12-07T15:52:23.321Z,1.35
2023-12-07T15:54:56.501Z,1.36
2023-12-07T15:57:26.547Z,1.37
2023-12-07T15:59:56.505Z,1.37
2023-12-07T16:02:27.249Z,1.37
2023-12-07T16:04:57.044Z,1.34
2023-12-07T16:07:27.107Z,1.37
2023-12-07T16:09:57.849Z,1.39
2023-12-07T16:12:28.605Z,1.38
2023-12-07T16:14:58.280Z,1.41
2023-12-07T16:17:28.310Z,1.42
2023-12-07T16:20:00.998Z,1.41
2023-12-07T16:22:30.957Z,1.40
2023-12-07T16:25:03.438Z,1.35
2023-12-07T16:27:33.191Z,1.35
2023-12-07T16:30:03.969Z,1.34
2023-12-07T16:32:34.029Z,1.30
2023-12-07T16:35:07.891Z,1.29
2023-12-07T16:37:37.400Z,1.31
2023-12-07T16:40:12.121Z,1.32
2023-12-07T16:42:43.181Z,1.31
2023-12-07T16:45:13.768Z,1.28
2023-12-07T16:47:43.654Z,1.27
2023-12-07T16:50:14.015Z,1.25
2023-12-07T16:52:52.101Z,1.22
2023-12-07T16:55:27.238Z,1.24
2023-12-07T16:57:56.792Z,1.24
2023-12-07T17:00:27.879Z,1.22
2023-12-07T17:02:58.556Z,1.22
2023-12-07T17:05:30.672Z,1.21
2023-12-07T17:08:02.575Z,1.19
2023-12-07T17:10:37.646Z,1.18
2023-12-07T17:13:08.425Z,1.17
2023-12-07T17:15:39.865Z,1.16
2023-12-07T17:18:10.896Z,1.17
2023-12-07T17:20:43.372Z,1.17
2023-12-07T17:23:17.019Z,1.16
2023-12-07T17:25:51.107Z,1.17
2023-12-07T17:28:24.085Z,1.17
2023-12-07T17:33:41.553Z,1.15
2023-12-07T17:36:16.328Z,1.15
2023-12-07T17:38:52.906Z,1.14
2023-12-07T17:41:26.036Z,1.14
2023-12-07T17:43:57.409Z,1.14
2023-12-07T17:46:31.496Z,1.10
2023-12-07T17:49:05.762Z,1.09
2023-12-07T17:51:36.277Z,1.10
2023-12-07T17:54:10.233Z,1.08
2023-12-07T17:56:45.004Z,1.07
2023-12-07T17:59:15.366Z,1.05
2023-12-07T18:01:44.943Z,1.01
2023-12-07T18:04:15.598Z,1.01
2023-12-07T18:06:45.747Z,1.00
2023-12-07T18:09:17.818Z,1.02
2023-12-07T18:11:48.004Z,1.00
2023-12-07T18:14:17.730Z,0.98
2023-12-07T18:16:48.511Z,0.96
2023-12-07T18:19:19.488Z,0.95
2023-12-07T18:21:49.376Z,0.95
2023-12-07T18:24:19.799Z,0.95
2023-12-07T18:26:52.392Z,0.94
2023-12-07T18:29:23.585Z,0.94
2023-12-07T18:31:53.522Z,0.93
2023-12-07T18:34:23.315Z,0.94
2023-12-07T18:36:55.182Z,0.94
2023-12-07T18:39:26.793Z,0.92
2023-12-07T18:42:03.022Z,0.91
2023-12-07T18:44:32.895Z,0.91
2023-12-07T18:47:03.648Z,0.91
2023-12-07T18:49:34.698Z,0.90
2023-12-07T18:52:07.398Z,0.90
2023-12-07T18:54:40.747Z,0.90
2023-12-07T18:57:10.585Z,0.92
2023-12-07T18:59:40.553Z,0.93
2023-12-07T19:02:10.411Z,0.92
2023-12-07T19:04:44.190Z,0.87
2023-12-07T19:07:15.869Z,0.91
2023-12-07T19:09:45.945Z,0.90
2023-12-07T19:12:15.861Z,0.90
2023-12-07T19:14:46.043Z,0.88
2023-12-07T19:17:17.131Z,0.87
2023-12-07T19:19:47.176Z,0.87
2023-12-07T19:22:17.383Z,0.88
2023-12-07T19:24:46.848Z,0.88
2023-12-07T19:27:17.139Z,0.88
2023-12-07T19:29:50.113Z,0.87
2023-12-07T19:32:19.674Z,0.89
2023-12-07T19:34:49.427Z,0.87
2023-12-07T19:37:19.338Z,0.86
2023-12-07T19:39:52.053Z,0.87
2023-12-07T19:42:23.177Z,0.86
2023-12-07T19:44:56.372Z,0.86
2023-12-07T19:47:27.216Z,0.85
2023-12-07T19:50:00.773Z,0.86
2023-12-07T19:52:32.324Z,0.84
2023-12-07T19:55:07.193Z,0.83
2023-12-07T19:57:44.461Z,0.84
2023-12-07T20:00:17.291Z,0.83
2023-12-07T20:02:48.209Z,0.84
2023-12-07T20:05:20.426Z,0.82
2023-12-07T20:07:56.781Z,0.81
2023-12-07T20:10:26.268Z,0.79
2023-12-07T20:12:58.159Z,0.79
2023-12-07T20:15:27.725Z,0.77
2023-12-07T20:17:58.698Z,0.80
2023-12-07T20:20:28.635Z,0.79
2023-12-07T20:23:00.239Z,0.74
2023-12-07T20:25:36.783Z,0.76
2023-12-07T20:28:08.744Z,0.75
2023-12-07T20:30:43.566Z,0.74
2023-12-07T20:33:13.866Z,0.72
2023-12-07T20:35:44.148Z,0.71
2023-12-07T20:38:18.191Z,0.68
2023-12-07T20:40:48.515Z,0.68
2023-12-07T20:43:19.348Z,0.67
2023-12-07T20:45:53.908Z,0.66
2023-12-07T20:48:23.971Z,0.67
2023-12-07T20:50:53.704Z,0.69
2023-12-07T20:53:23.923Z,0.69
2023-12-07T20:56:50.702Z,0.70
2023-12-07T20:59:22.704Z,0.70
2023-12-07T21:01:52.332Z,0.72
2023-12-07T21:04:24.314Z,0.72
2023-12-07T21:06:54.081Z,0.69
2023-12-07T21:09:24.212Z,0.66
2023-12-07T21:11:54.227Z,0.67
2023-12-07T21:14:23.972Z,0.68
2023-12-07T21:16:54.102Z,0.66
2023-12-07T21:19:58.113Z,0.63
2023-12-07T21:22:29.180Z,0.63
2023-12-07T21:24:59.119Z,0.63
2023-12-07T21:27:30.752Z,0.62
2023-12-07T21:30:00.973Z,0.59
2023-12-07T21:32:31.336Z,0.61
2023-12-07T21:35:01.012Z,0.60
2023-12-07T21:37:33.424Z,0.58
2023-12-07T21:40:04.998Z,0.59
2023-12-07T21:42:34.921Z,0.60
2023-12-07T21:45:05.636Z,0.59
2023-12-07T21:47:37.625Z,0.60
2023-12-07T21:50:07.838Z,0.59
2023-12-07T21:52:37.768Z,0.59
2023-12-07T21:55:08.185Z,0.57
2023-12-07T21:57:37.769Z,0.60
2023-12-07T22:00:09.279Z,0.60
2023-12-07T22:02:45.407Z,0.60
2023-12-07T22:05:15.128Z,0.56
2023-12-07T22:07:45.301Z,0.53
2023-12-07T22:10:22.930Z,0.55
2023-12-07T22:12:59.074Z,0.54
2023-12-07T22:15:28.795Z,0.54
2023-12-07T22:17:59.570Z,0.53
2023-12-07T22:20:29.675Z,0.52
2023-12-07T22:22:59.476Z,0.54
2023-12-07T22:25:29.888Z,0.52
2023-12-07T22:28:00.263Z,0.49
2023-12-07T22:30:30.406Z,0.50
2023-12-07T22:33:00.733Z,0.49
2023-12-07T22:35:30.635Z,0.47
2023-12-07T22:38:01.449Z,0.46
2023-12-07T22:40:31.351Z,0.46
2023-12-07T22:43:01.246Z,0.48
2023-12-07T22:45:33.718Z,0.50
2023-12-07T22:48:04.001Z,0.52
2023-12-07T22:50:36.256Z,0.54
2023-12-07T22:53:05.995Z,0.54
2023-12-07T22:55:38.756Z,0.55
2023-12-07T22:58:09.475Z,0.56
2023-12-07T23:00:39.717Z,0.56
2023-12-07T23:03:09.220Z,0.57
2023-12-07T23:05:38.981Z,0.56
2023-12-07T23:08:08.734Z,0.58
2023-12-07T23:10:40.108Z,0.57
2023-12-07T23:13:10.003Z,0.56
2023-12-07T23:15:42.049Z,0.56
2023-12-07T23:18:11.756Z,0.56
2023-12-07T23:20:41.398Z,0.55
2023-12-07T23:23:10.903Z,0.53
2023-12-07T23:25:40.676Z,0.54
2023-12-07T23:28:10.261Z,0.52
2023-12-07T23:30:39.913Z,0.54
2023-12-07T23:33:09.771Z,0.54
2023-12-07T23:35:39.367Z,0.53
2023-12-07T23:38:09.112Z,0.52
2023-12-07T23:40:38.600Z,0.54
2023-12-07T23:43:08.068Z,0.56
2023-12-07T23:45:38.187Z,0.57
2023-12-07T23:48:07.814Z,0.58
2023-12-07T23:50:37.846Z,0.58
2023-12-07T23:53:07.469Z,0.60
2023-12-07T23:55:37.611Z,0.58
2023-12-07T23:58:07.843Z,0.56
